Home   Weather   USA   Austin   Past weeks
Flag for USA

Past Weather in Austin, Texas, USA — June 2018

Currently: 73 °F. Sunny. (Weather station: Camp Mabry / Austin City, USA). See more current weather

June 2018 Weather in Austin — Graph

°F

High & Low Weather Summary for June 2018

 TemperatureHumidityPressure
High100 °F (Jun 2, 3:51 pm)94% (Jun 18, 4:27 am)30.12 "Hg (Jun 18, 4:27 am)
Low71 °F (Jun 4, 2:51 am)31% (Jun 10, 4:51 pm)29.70 "Hg (Jun 23, 6:51 pm)
Average84 °F67%29.90 "Hg
* Reported Jun 1 12:51 am — Jun 30 11:51 pm, Austin. Weather by CustomWeather, © 2023

Note: Actual official high and low records may vary slightly from our data, if they occured in-between our weather recording intervals... More about our weather records

Austin Weather History for June 1, 2018

Scroll right to see more
 ConditionsComfort  
Time TempWeatherWind HumidityBarometerVisibility
12:51 am
Fri, Jun 1
79 °FClear.7 mph77%29.84 "Hg10 mi
1:30 am78 °FPassing clouds.7 mph79%29.87 "Hg10 mi
1:51 am77 °FPassing clouds.6 mph82%29.83 "Hg10 mi
2:17 am77 °FPassing clouds.6 mph82%29.87 "Hg10 mi
2:51 am78 °FOvercast.7 mph79%29.82 "Hg10 mi
3:51 am78 °FOvercast.6 mph79%29.81 "Hg10 mi
4:51 am78 °FOvercast.6 mph79%29.82 "Hg10 mi
5:51 am78 °FPassing clouds.3 mph79%29.83 "Hg9 mi
6:51 am77 °FOvercast.6 mph82%29.85 "Hg7 mi
7:51 am78 °FPartly sunny.6 mph82%29.87 "Hg6 mi
8:51 am80 °FOvercast.9 mph74%29.89 "Hg8 mi
9:51 am82 °FPartly sunny.6 mph70%29.90 "Hg9 mi
10:42 am85 °FOvercast.9 mph61%29.94 "Hg10 mi
10:51 am85 °FOvercast.5 mph61%29.89 "Hg10 mi
11:51 am90 °FScattered clouds.7 mph52%29.90 "Hg10 mi
12:51 pm93 °FScattered clouds.6 mph47%29.88 "Hg10 mi
1:51 pm94 °FSunny.8 mph44%29.86 "Hg10 mi
2:51 pm96 °FSunny.7 mph41%29.84 "Hg10 mi
3:51 pm98 °FSunny.8 mph38%29.82 "Hg10 mi
4:51 pm98 °FSunny.10 mph36%29.80 "Hg10 mi
5:51 pm98 °FSunny.6 mph36%29.78 "Hg10 mi
6:51 pm96 °FSunny.7 mph38%29.78 "Hg10 mi
7:51 pm93 °FSunny.8 mph41%29.78 "Hg10 mi
8:51 pm91 °FClear.8 mph45%29.79 "Hg10 mi
9:51 pm88 °FClear.8 mph54%29.80 "Hg10 mi
10:51 pm85 °FClear.9 mph63%29.86 "Hg10 mi
11:51 pm82 °FClear.6 mph72%29.87 "Hg10 mi
Weather by CustomWeather, © 2023

See weather overview